Time;durP1;ratioP1;P1;durP2;ratioP2;P2;SDS_P1;SDS_P2;PMS_P1;PMS_P2;Temp;Humidity;BMP_temperature;BMP_pressure;BME280_temperature;BME280_humidity;BME280_pressure;Samples;Min_cycle;Max_cycle;Signal;HPM_P1;HPM_P2
2021/06/03 00:01:59;;;;;;;7.50;5.35;;;18.40;99.90;;;;;;5050973;28;20017;-76
2021/06/03 00:04:25;;;;;;;9.40;5.77;;;18.50;99.90;;;;;;5056573;28;20435;-76
2021/06/03 00:06:51;;;;;;;9.27;5.13;;;18.50;99.90;;;;;;5052250;28;20028;-77
2021/06/03 00:09:17;;;;;;;9.47;4.87;;;18.50;99.90;;;;;;5048586;28;20044;-77
2021/06/03 00:11:44;;;;;;;6.13;4.68;;;18.50;99.90;;;;;;5052292;28;20021;-77
2021/06/03 00:14:10;;;;;;;5.25;4.28;;;18.40;99.90;;;;;;5056280;28;20440;-78
2021/06/03 00:16:36;;;;;;;6.13;4.45;;;18.50;99.90;;;;;;5049537;28;20055;-77
2021/06/03 00:19:07;;;;;;;7.33;4.27;;;18.50;99.90;;;;;;5056172;28;20389;-78
2021/06/03 00:21:34;;;;;;;7.63;4.90;;;18.50;99.90;;;;;;5045343;28;20678;-77
2021/06/03 00:24:00;;;;;;;6.63;4.60;;;18.60;99.90;;;;;;5050977;28;20029;-77
2021/06/03 00:26:27;;;;;;;5.85;4.47;;;18.60;99.90;;;;;;5052486;28;20036;-77
2021/06/03 00:28:52;;;;;;;5.43;4.47;;;18.40;99.90;;;;;;5053389;28;20021;-77
2021/06/03 00:31:18;;;;;;;5.60;4.50;;;18.30;99.90;;;;;;5050737;28;20024;-77
2021/06/03 00:33:44;;;;;;;4.73;3.80;;;18.30;99.90;;;;;;5049554;28;20017;-77
2021/06/03 00:36:10;;;;;;;6.33;4.23;;;18.30;99.90;;;;;;5052196;28;20383;-77
2021/06/03 00:38:37;;;;;;;6.70;4.05;;;18.30;99.90;;;;;;5063927;28;20777;-77
2021/06/03 00:41:04;;;;;;;8.70;4.32;;;18.30;99.90;;;;;;5073033;28;20404;-78
2021/06/03 00:43:31;;;;;;;6.95;3.97;;;18.40;99.90;;;;;;5069716;28;20027;-77
2021/06/03 00:45:57;;;;;;;6.47;4.20;;;18.40;99.90;;;;;;5069978;28;20032;-77
2021/06/03 00:48:23;;;;;;;6.15;4.60;;;18.50;99.90;;;;;;5074444;28;20447;-77
2021/06/03 00:50:52;;;;;;;5.90;4.17;;;18.40;99.90;;;;;;5070257;28;20028;-77
2021/06/03 00:53:19;;;;;;;5.50;4.13;;;18.50;99.90;;;;;;5075045;28;20293;-77
2021/06/03 00:55:49;;;;;;;8.55;4.72;;;18.50;99.90;;;;;;5071616;28;20472;-77
2021/06/03 00:58:15;;;;;;;6.80;4.70;;;18.50;99.90;;;;;;5075143;28;20021;-77
2021/06/03 01:00:41;;;;;;;11.77;4.90;;;18.60;99.90;;;;;;5063637;28;20486;-77
2021/06/03 01:03:08;;;;;;;8.63;4.87;;;18.70;99.90;;;;;;5064620;28;20052;-77
2021/06/03 01:05:37;;;;;;;;;;;18.60;99.90;;;;;;5072482;28;20288;-77
2021/06/03 01:08:04;;;;;;;8.52;5.00;;;18.60;99.90;;;;;;5064277;28;19916;-78
2021/06/03 01:10:37;;;;;;;6.32;4.95;;;18.60;99.90;;;;;;5074192;28;20078;-77
2021/06/03 01:13:17;;;;;;;7.43;5.05;;;18.60;99.90;;;;;;5071429;28;20032;-77
2021/06/03 01:15:47;;;;;;;6.93;5.22;;;18.60;99.90;;;;;;5071990;28;20471;-77
2021/06/03 01:18:14;;;;;;;10.15;4.97;;;18.60;99.90;;;;;;5074613;28;20021;-77
2021/06/03 01:20:39;;;;;;;;;;;18.60;99.90;;;;;;5066662;28;20352;-77
2021/06/03 01:23:12;;;;;;;7.63;4.85;;;18.50;99.90;;;;;;5073177;28;19927;-78
2021/06/03 01:25:39;;;;;;;24.30;4.82;;;18.50;99.90;;;;;;5074423;28;20111;-78
2021/06/03 01:28:05;;;;;;;7.43;5.03;;;18.40;99.90;;;;;;5073840;28;20028;-77
2021/06/03 01:30:38;;;;;;;8.02;5.47;;;18.50;99.90;;;;;;5068727;28;20029;-79
2021/06/03 01:33:11;;;;;;;8.60;5.20;;;18.40;99.90;;;;;;5069040;28;20099;-78
2021/06/03 01:35:49;;;;;;;8.02;5.30;;;18.20;99.90;;;;;;5067739;28;20040;-78
2021/06/03 01:38:19;;;;;;;11.15;5.68;;;18.10;99.90;;;;;;5069686;28;20030;-78
2021/06/03 01:40:48;;;;;;;7.65;5.68;;;18.10;99.90;;;;;;5067263;28;20032;-78
2021/06/03 01:43:16;;;;;;;8.32;5.25;;;18.10;99.90;;;;;;5070086;28;20031;-79
2021/06/03 01:45:43;;;;;;;9.25;5.55;;;18.10;99.90;;;;;;5066494;28;20435;-78
2021/06/03 01:48:10;;;;;;;10.23;6.05;;;18.10;99.90;;;;;;5072550;28;20362;-77
2021/06/03 01:50:36;;;;;;;11.05;5.93;;;18.00;99.90;;;;;;5067985;28;20416;-77
2021/06/03 01:53:03;;;;;;;8.73;6.23;;;17.90;99.90;;;;;;5069277;28;20028;-78
2021/06/03 01:55:29;;;;;;;10.50;6.38;;;18.00;99.90;;;;;;5067852;28;20276;-77
2021/06/03 01:57:56;;;;;;;8.60;6.60;;;18.00;99.90;;;;;;5060769;28;20104;-79
2021/06/03 02:00:24;;;;;;;9.02;5.38;;;18.10;99.90;;;;;;5071954;28;20039;-78
2021/06/03 02:02:50;;;;;;;11.02;6.53;;;18.10;99.90;;;;;;5060013;28;20032;-79
2021/06/03 02:05:17;;;;;;;9.32;6.43;;;18.20;99.90;;;;;;5063494;28;20029;-76
2021/06/03 02:07:42;;;;;;;;;;;18.30;99.90;;;;;;5054121;28;20108;-77
2021/06/03 02:10:10;;;;;;;11.00;6.78;;;18.30;99.90;;;;;;5053783;28;20288;-77
2021/06/03 02:12:41;;;;;;;10.05;5.72;;;18.30;99.90;;;;;;5066706;28;20428;-76
2021/06/03 02:15:08;;;;;;;11.75;6.18;;;18.40;99.90;;;;;;5065778;28;20028;-78
2021/06/03 02:17:39;;;;;;;9.60;6.25;;;18.40;99.90;;;;;;5070369;28;20361;-75
2021/06/03 02:20:05;;;;;;;10.50;6.53;;;18.40;99.90;;;;;;5073285;28;20020;-78
2021/06/03 02:22:31;;;;;;;9.60;5.90;;;18.50;99.90;;;;;;5071984;28;20032;-76
2021/06/03 02:24:58;;;;;;;9.68;6.05;;;18.40;99.90;;;;;;5072133;28;20313;-77
2021/06/03 02:27:23;;;;;;;9.50;5.93;;;18.40;99.90;;;;;;5066575;28;20037;-75
2021/06/03 02:29:51;;;;;;;8.37;5.63;;;18.50;99.90;;;;;;5071575;28;20035;-78
2021/06/03 02:32:19;;;;;;;8.38;5.57;;;18.50;99.90;;;;;;5073565;28;20276;-75
2021/06/03 02:34:48;;;;;;;7.30;5.60;;;18.50;99.90;;;;;;5064208;28;20029;-75
2021/06/03 02:37:15;;;;;;;7.28;5.32;;;18.50;99.90;;;;;;5066954;28;20383;-75
2021/06/03 02:39:44;;;;;;;8.43;4.85;;;18.50;99.90;;;;;;5072397;28;20385;-78
2021/06/03 02:42:10;;;;;;;8.05;4.55;;;18.50;99.90;;;;;;5070989;28;20502;-79
2021/06/03 02:44:37;;;;;;;6.10;4.40;;;18.50;99.90;;;;;;5073552;28;20078;-78
2021/06/03 02:47:03;;;;;;;;;;;18.50;99.90;;;;;;5065317;28;20074;-75
2021/06/03 02:49:29;;;;;;;6.80;4.47;;;18.50;99.90;;;;;;5060716;28;19920;-77
2021/06/03 02:51:55;;;;;;;6.67;4.67;;;18.60;99.90;;;;;;5070219;28;20039;-75
2021/06/03 02:54:20;;;;;;;5.50;4.50;;;18.60;99.90;;;;;;5072406;28;20419;-78
2021/06/03 02:56:46;;;;;;;7.87;5.13;;;18.70;99.90;;;;;;5068571;28;20027;-78
2021/06/03 02:59:12;;;;;;;5.57;4.23;;;18.60;99.90;;;;;;5072007;28;20108;-78
2021/06/03 03:01:38;;;;;;;7.03;4.63;;;18.70;99.90;;;;;;5069140;28;20115;-76
2021/06/03 03:04:04;;;;;;;6.17;4.60;;;18.80;99.90;;;;;;5070933;28;20024;-76
2021/06/03 03:06:29;;;;;;;6.25;4.30;;;18.80;99.90;;;;;;5063220;28;20033;-75
2021/06/03 03:08:55;;;;;;;9.57;4.37;;;18.70;99.90;;;;;;5060830;28;20028;-76
2021/06/03 03:11:21;;;;;;;5.95;4.30;;;18.70;99.90;;;;;;5068843;28;20039;-78
2021/06/03 03:13:47;;;;;;;8.67;4.67;;;18.80;99.90;;;;;;5072338;28;20051;-78
2021/06/03 03:16:13;;;;;;;6.40;4.87;;;18.80;99.90;;;;;;5071578;28;20086;-78
2021/06/03 03:18:38;;;;;;;6.50;4.90;;;18.80;99.90;;;;;;5075082;28;20265;-78
2021/06/03 03:21:06;;;;;;;6.70;4.13;;;18.80;99.90;;;;;;5062920;28;20054;-78
2021/06/03 03:23:32;;;;;;;5.97;4.15;;;18.80;99.90;;;;;;5074813;28;20032;-78
2021/06/03 03:25:58;;;;;;;5.47;3.97;;;18.70;99.90;;;;;;5076168;28;20028;-77
2021/06/03 03:28:24;;;;;;;6.30;4.38;;;18.80;99.90;;;;;;5076013;28;20641;-79
2021/06/03 03:30:50;;;;;;;5.00;3.80;;;18.80;99.90;;;;;;5070950;28;20036;-78
2021/06/03 03:33:16;;;;;;;6.15;4.40;;;18.80;99.90;;;;;;5072261;28;20418;-79
2021/06/03 03:35:47;;;;;;;7.57;3.90;;;18.80;99.90;;;;;;5075418;28;20072;-79
2021/06/03 03:38:14;;;;;;;5.20;4.25;;;18.70;99.90;;;;;;5074175;28;20029;-79
2021/06/03 03:40:40;;;;;;;5.28;3.95;;;18.80;99.90;;;;;;5073451;28;20021;-79
2021/06/03 03:43:06;;;;;;;5.53;3.80;;;18.80;99.90;;;;;;5074920;28;20035;-76
2021/06/03 03:45:32;;;;;;;4.60;3.63;;;18.70;99.90;;;;;;5073589;28;20032;-78
2021/06/03 03:48:00;;;;;;;5.75;3.70;;;18.70;99.90;;;;;;5074175;28;20027;-77
2021/06/03 03:50:27;;;;;;;5.60;3.67;;;18.80;99.90;;;;;;5071801;28;20033;-76
2021/06/03 03:52:54;;;;;;;4.85;3.22;;;18.80;99.90;;;;;;5072102;28;20075;-78
2021/06/03 03:55:20;;;;;;;4.85;3.80;;;18.70;99.90;;;;;;5073041;28;20031;-79
2021/06/03 03:57:48;;;;;;;4.33;3.37;;;18.70;99.90;;;;;;5069546;28;20024;-80
2021/06/03 04:00:23;;;;;;;4.85;3.90;;;18.80;99.90;;;;;;5073974;28;20039;-78
2021/06/03 04:02:48;;;;;;;4.93;3.90;;;18.80;99.90;;;;;;5072792;28;20025;-77
2021/06/03 04:05:15;;;;;;;5.10;3.38;;;18.70;99.90;;;;;;5072799;28;20325;-78
2021/06/03 04:07:41;;;;;;;4.55;3.50;;;18.70;99.90;;;;;;5074186;28;20032;-79
2021/06/03 04:10:10;;;;;;;3.95;3.55;;;18.70;99.90;;;;;;5071089;28;20477;-79
2021/06/03 04:12:36;;;;;;;8.25;4.38;;;18.70;99.90;;;;;;5068308;28;20037;-80
2021/06/03 04:15:03;;;;;;;4.82;3.88;;;18.70;99.90;;;;;;5070151;28;20037;-78
2021/06/03 04:17:29;;;;;;;4.43;3.50;;;18.80;99.90;;;;;;5071913;28;20435;-78
2021/06/03 04:19:55;;;;;;;4.37;3.47;;;18.70;99.90;;;;;;5072175;28;20031;-80
2021/06/03 04:22:21;;;;;;;4.67;3.70;;;18.70;99.90;;;;;;5072437;28;20039;-79
2021/06/03 04:24:47;;;;;;;4.63;4.13;;;18.80;99.90;;;;;;5074107;28;20469;-78
2021/06/03 04:27:13;;;;;;;4.68;4.13;;;18.80;99.90;;;;;;5072862;28;20040;-78
2021/06/03 04:29:39;;;;;;;6.07;4.03;;;18.80;99.90;;;;;;5071452;28;20093;-77
2021/06/03 04:32:05;;;;;;;6.07;4.33;;;18.90;99.90;;;;;;5070095;28;20032;-75
2021/06/03 04:34:33;;;;;;;5.03;4.15;;;18.90;99.90;;;;;;5063747;28;20024;-80
2021/06/03 04:36:59;;;;;;;8.00;4.18;;;18.90;99.90;;;;;;5072849;28;20082;-76
2021/06/03 04:39:25;;;;;;;5.57;4.53;;;18.90;99.90;;;;;;5069012;28;20029;-78
2021/06/03 04:41:51;;;;;;;5.25;3.83;;;18.90;99.90;;;;;;5070339;28;20045;-78
2021/06/03 04:44:17;;;;;;;4.30;3.63;;;18.80;99.90;;;;;;5068515;28;20247;-78
2021/06/03 04:46:43;;;;;;;6.63;3.80;;;18.90;99.90;;;;;;5072011;28;20024;-77
2021/06/03 04:49:09;;;;;;;6.50;4.00;;;18.90;99.90;;;;;;5073560;28;20043;-76
2021/06/03 04:51:34;;;;;;;6.90;3.93;;;18.90;99.90;;;;;;5068494;28;20055;-78
2021/06/03 04:54:01;;;;;;;5.73;4.20;;;18.90;99.90;;;;;;5071087;28;20115;-78
2021/06/03 04:56:27;;;;;;;6.10;4.13;;;18.90;99.90;;;;;;5073451;28;20023;-76
2021/06/03 04:58:52;;;;;;;7.27;4.13;;;18.90;99.90;;;;;;5073659;28;20103;-77
2021/06/03 05:01:18;;;;;;;5.97;4.40;;;18.90;99.90;;;;;;5069879;28;20047;-75
2021/06/03 05:03:44;;;;;;;5.67;4.50;;;18.90;99.90;;;;;;5070730;28;20067;-78
2021/06/03 05:06:09;;;;;;;6.80;4.50;;;18.90;99.90;;;;;;5071882;28;20028;-78
2021/06/03 05:08:35;;;;;;;6.90;4.40;;;19.00;99.90;;;;;;5072625;28;20055;-77
2021/06/03 05:11:01;;;;;;;7.33;4.53;;;19.00;99.90;;;;;;5072223;28;20040;-79
2021/06/03 05:13:30;;;;;;;10.97;4.73;;;19.10;99.90;;;;;;5072805;28;20416;-79
2021/06/03 05:15:56;;;;;;;7.93;4.88;;;19.10;99.90;;;;;;5068454;28;20403;-78
2021/06/03 05:18:21;;;;;;;10.07;5.10;;;19.10;99.90;;;;;;5072745;28;20028;-76
2021/06/03 05:20:48;;;;;;;11.37;5.47;;;19.10;99.90;;;;;;5072844;28;20322;-77
2021/06/03 05:23:14;;;;;;;8.70;5.25;;;19.20;99.90;;;;;;5070419;28;20033;-76
2021/06/03 05:25:40;;;;;;;7.77;4.87;;;19.20;99.90;;;;;;5072340;28;20335;-79
2021/06/03 05:28:05;;;;;;;12.33;4.53;;;19.20;99.90;;;;;;5067791;28;20020;-76
2021/06/03 05:30:32;;;;;;;6.50;4.93;;;19.20;99.90;;;;;;5071454;28;20107;-78
2021/06/03 05:32:58;;;;;;;8.50;5.38;;;19.20;99.90;;;;;;5070049;28;20030;-76
2021/06/03 05:35:25;;;;;;;13.10;4.90;;;19.30;99.90;;;;;;5069673;28;20032;-77
2021/06/03 05:37:51;;;;;;;6.63;4.20;;;19.30;99.90;;;;;;5071479;28;20266;-76
2021/06/03 05:40:19;;;;;;;7.22;5.07;;;19.30;99.90;;;;;;5071646;28;20035;-77
2021/06/03 05:42:51;;;;;;;8.63;5.25;;;19.40;99.90;;;;;;5071379;28;20036;-76
2021/06/03 05:45:17;;;;;;;12.98;5.35;;;19.40;99.90;;;;;;5070452;28;20024;-78
2021/06/03 05:47:43;;;;;;;8.35;5.10;;;19.40;99.90;;;;;;5072182;28;20033;-78
2021/06/03 05:50:12;;;;;;;6.47;5.32;;;19.50;99.90;;;;;;5068964;28;20159;-77
2021/06/03 05:52:40;;;;;;;7.30;5.57;;;19.50;99.90;;;;;;5068617;28;20055;-77
2021/06/03 05:55:07;;;;;;;7.13;5.32;;;19.50;99.90;;;;;;5070936;28;20336;-75
2021/06/03 05:57:34;;;;;;;11.30;5.75;;;19.60;99.90;;;;;;5071925;28;20028;-75
2021/06/03 06:00:00;;;;;;;8.00;5.43;;;19.60;99.90;;;;;;5070425;28;20040;-78
2021/06/03 06:02:43;;;;;;;8.73;6.10;;;19.70;99.90;;;;;;5072110;28;20071;-76
2021/06/03 06:07:55;;;;;;;11.07;5.90;;;19.80;99.90;;;;;;5070755;28;20094;-75
2021/06/03 06:10:20;;;;;;;7.70;5.67;;;19.90;99.90;;;;;;5068510;28;20033;-78
2021/06/03 06:12:46;;;;;;;7.60;6.23;;;19.90;99.90;;;;;;5071303;28;20281;-75
2021/06/03 06:15:12;;;;;;;7.20;5.60;;;20.00;99.90;;;;;;5070076;28;20033;-77
2021/06/03 06:17:38;;;;;;;8.13;5.75;;;20.10;99.90;;;;;;5071514;28;20373;-76
2021/06/03 06:20:05;;;;;;;9.97;6.70;;;20.10;99.90;;;;;;5072421;28;20045;-76
2021/06/03 06:22:31;;;;;;;12.07;6.68;;;20.20;99.90;;;;;;5070860;28;20029;-80
2021/06/03 06:24:58;;;;;;;16.58;7.15;;;20.20;99.90;;;;;;5070059;28;20032;-77
2021/06/03 06:27:24;;;;;;;8.77;6.43;;;20.20;99.90;;;;;;5070754;28;20037;-75
2021/06/03 06:29:50;;;;;;;9.13;6.97;;;20.20;99.90;;;;;;5069866;28;20261;-80
2021/06/03 06:32:15;;;;;;;10.63;6.83;;;20.30;99.90;;;;;;5070836;28;20400;-78
2021/06/03 06:34:41;;;;;;;11.27;6.67;;;20.30;99.90;;;;;;5070721;28;20257;-75
2021/06/03 06:37:07;;;;;;;18.47;7.27;;;20.30;99.90;;;;;;5070904;28;20451;-79
2021/06/03 06:39:33;;;;;;;11.83;6.93;;;20.30;99.90;;;;;;5068007;28;20323;-76
2021/06/03 06:41:58;;;;;;;8.70;6.77;;;20.40;99.90;;;;;;5070477;28;20031;-76
2021/06/03 06:44:24;;;;;;;10.40;6.93;;;20.40;99.90;;;;;;5072420;28;20253;-79
2021/06/03 06:46:50;;;;;;;7.73;6.83;;;20.40;99.90;;;;;;5068737;28;20109;-76
2021/06/03 06:49:15;;;;;;;9.10;6.37;;;20.40;99.90;;;;;;5071096;28;20052;-75
2021/06/03 06:51:41;;;;;;;11.37;6.90;;;20.50;99.90;;;;;;5068715;28;20024;-76
2021/06/03 06:54:07;;;;;;;10.60;6.68;;;20.50;99.90;;;;;;5074667;28;20024;-75
2021/06/03 06:56:33;;;;;;;11.23;7.57;;;20.60;99.90;;;;;;5073793;28;20127;-75
2021/06/03 06:58:58;;;;;;;13.48;7.38;;;20.60;99.90;;;;;;5063782;28;20356;-76
2021/06/03 07:01:24;;;;;;;12.93;7.30;;;20.70;99.90;;;;;;5072789;28;20033;-75
2021/06/03 07:03:51;;;;;;;10.03;7.37;;;20.70;99.90;;;;;;5071881;28;20412;-76
2021/06/03 07:06:17;;;;;;;9.43;7.05;;;20.80;99.90;;;;;;5073584;28;20415;-79
2021/06/03 07:08:43;;;;;;;10.02;7.35;;;20.90;99.90;;;;;;5067565;28;20044;-75
2021/06/03 07:11:09;;;;;;;10.67;7.40;;;20.90;99.90;;;;;;5071262;28;20037;-76
2021/06/03 07:13:34;;;;;;;9.73;7.50;;;21.00;99.90;;;;;;5071811;28;20040;-75
2021/06/03 07:16:00;;;;;;;10.77;6.57;;;21.10;99.90;;;;;;5069190;28;20067;-76
2021/06/03 07:18:26;;;;;;;12.20;8.00;;;21.10;99.90;;;;;;5073018;28;20032;-78
2021/06/03 07:20:52;;;;;;;13.07;8.47;;;21.10;99.90;;;;;;5074509;28;20110;-76
2021/06/03 07:23:19;;;;;;;11.87;8.10;;;21.20;99.90;;;;;;5072785;28;20024;-75
2021/06/03 07:25:45;;;;;;;10.30;7.82;;;21.20;99.90;;;;;;5069572;28;20082;-79
2021/06/03 07:28:10;;;;;;;15.83;8.00;;;21.40;99.90;;;;;;5067631;28;20408;-75
2021/06/03 07:30:37;;;;;;;16.90;7.47;;;21.50;99.90;;;;;;5070822;28;20024;-75
2021/06/03 07:33:04;;;;;;;9.27;7.45;;;21.60;99.90;;;;;;5075730;28;20021;-75
2021/06/03 07:35:31;;;;;;;12.25;7.78;;;21.60;99.90;;;;;;5076392;28;20343;-75
2021/06/03 07:37:57;;;;;;;11.82;6.72;;;21.60;99.90;;;;;;5073661;28;20028;-75
2021/06/03 07:40:28;;;;;;;12.80;8.37;;;21.70;99.90;;;;;;5069950;28;20027;-75
2021/06/03 07:42:55;;;;;;;11.52;8.23;;;21.70;99.90;;;;;;5073692;28;20035;-75
2021/06/03 07:45:23;;;;;;;;;;;21.70;99.90;;;;;;5073853;28;20421;-74
2021/06/03 07:47:50;;;;;;;12.15;8.30;;;21.80;99.90;;;;;;5073733;28;20279;-75
2021/06/03 07:50:15;;;;;;;11.05;8.77;;;22.00;99.90;;;;;;5073768;28;20032;-75
2021/06/03 07:52:42;;;;;;;12.45;8.32;;;22.10;99.90;;;;;;5074509;28;20315;-75
2021/06/03 07:55:12;;;;;;;12.57;7.72;;;22.40;99.90;;;;;;5074059;28;20056;-75
2021/06/03 07:57:39;;;;;;;11.18;8.25;;;22.70;99.90;;;;;;5073460;28;20028;-75
2021/06/03 08:00:06;;;;;;;;;;;22.90;99.90;;;;;;5071072;28;20021;-76
2021/06/03 08:02:32;;;;;;;12.38;8.18;;;23.20;99.90;;;;;;5073732;28;20291;-75
2021/06/03 08:04:58;;;;;;;10.67;8.40;;;23.50;99.90;;;;;;5073694;28;20104;-75
2021/06/03 08:07:23;;;;;;;11.03;7.93;;;23.60;99.90;;;;;;5071767;28;20335;-75
2021/06/03 08:09:49;;;;;;;11.73;8.17;;;23.70;99.90;;;;;;5073386;28;20028;-76
2021/06/03 08:12:15;;;;;;;9.97;7.80;;;23.90;99.90;;;;;;5067220;28;20289;-76
2021/06/03 08:14:41;;;;;;;13.43;7.53;;;23.90;99.90;;;;;;5074728;28;20378;-76
2021/06/03 08:17:07;;;;;;;13.67;7.47;;;23.90;99.90;;;;;;5072762;28;20058;-76
2021/06/03 08:19:32;;;;;;;12.13;7.90;;;23.80;99.90;;;;;;5073032;28;21014;-76
2021/06/03 08:21:58;;;;;;;11.33;7.17;;;23.90;99.90;;;;;;5073910;28;20036;-76
2021/06/03 08:24:24;;;;;;;10.57;7.55;;;24.00;99.90;;;;;;5072156;28;20435;-75
2021/06/03 08:26:52;;;;;;;12.77;8.15;;;24.10;99.90;;;;;;5072580;28;20039;-77
2021/06/03 08:29:19;;;;;;;10.55;7.78;;;24.00;99.90;;;;;;5072050;28;20039;-76
2021/06/03 08:31:45;;;;;;;9.95;7.45;;;23.80;99.90;;;;;;5073667;28;20036;-75
2021/06/03 08:34:11;;;;;;;13.52;7.93;;;23.80;99.90;;;;;;5072265;28;20039;-76
2021/06/03 08:36:38;;;;;;;11.57;7.90;;;23.90;99.90;;;;;;5074148;28;20045;-75
2021/06/03 08:39:06;;;;;;;11.68;8.00;;;24.20;99.90;;;;;;5071928;28;20033;-76
2021/06/03 08:41:36;;;;;;;10.52;7.95;;;24.50;99.90;;;;;;5068693;28;20024;-75
2021/06/03 08:44:03;;;;;;;11.90;7.35;;;24.80;99.90;;;;;;5071145;28;20032;-76
2021/06/03 08:46:29;;;;;;;15.05;7.45;;;24.90;99.90;;;;;;5073128;28;20063;-77
2021/06/03 08:48:55;;;;;;;9.88;7.03;;;24.80;99.90;;;;;;5071737;28;20088;-76
2021/06/03 08:51:21;;;;;;;10.43;7.07;;;24.60;99.90;;;;;;5070451;28;20045;-75
2021/06/03 08:53:49;;;;;;;13.27;7.73;;;24.50;99.90;;;;;;5068358;28;20020;-76
2021/06/03 08:56:18;;;;;;;13.43;8.13;;;24.50;99.90;;;;;;5070386;28;20021;-76
2021/06/03 08:58:46;;;;;;;11.18;7.07;;;24.60;99.90;;;;;;5071485;28;20667;-76
2021/06/03 09:01:12;;;;;;;12.43;8.75;;;24.80;99.90;;;;;;5067759;28;20024;-76
2021/06/03 09:03:39;;;;;;;13.07;7.65;;;25.20;99.90;;;;;;5070100;28;20032;-76
2021/06/03 09:06:05;;;;;;;12.35;8.27;;;25.40;99.90;;;;;;5071377;28;20036;-76
2021/06/03 09:08:33;;;;;;;13.77;8.27;;;25.50;99.90;;;;;;5070283;28;20028;-76
2021/06/03 09:11:09;;;;;;;11.35;7.72;;;25.60;99.90;;;;;;5069440;28;20058;-76
2021/06/03 09:13:45;;;;;;;13.13;7.88;;;25.60;99.90;;;;;;5067005;28;20033;-75
2021/06/03 09:16:10;;;;;;;11.35;7.35;;;25.50;99.90;;;;;;5068370;28;20328;-75
2021/06/03 09:18:53;;;;;;;8.33;7.20;;;25.50;99.90;;;;;;5072227;28;20028;-76
2021/06/03 09:21:26;;;;;;;13.50;7.28;;;25.60;99.90;;;;;;5072214;28;20043;-76
2021/06/03 09:24:03;;;;;;;13.02;7.55;;;25.80;99.90;;;;;;5071039;28;20024;-76
2021/06/03 09:26:35;;;;;;;10.90;7.60;;;26.00;99.90;;;;;;5071028;28;20056;-75
2021/06/03 09:29:03;;;;;;;11.90;7.22;;;26.10;99.90;;;;;;5070778;28;20032;-74
2021/06/03 09:31:35;;;;;;;11.35;7.63;;;26.20;99.90;;;;;;5071544;28;20028;-76
2021/06/03 09:34:16;;;;;;;20.55;7.10;;;26.30;99.90;;;;;;5070865;28;20085;-76
2021/06/03 09:36:58;;;;;;;13.43;8.05;;;26.50;99.90;;;;;;5070765;28;20044;-75
2021/06/03 09:39:36;;;;;;;13.98;7.53;;;26.70;99.90;;;;;;5071499;28;20051;-75
2021/06/03 09:42:03;;;;;;;17.83;7.93;;;26.70;99.90;;;;;;5067664;28;20086;-76
2021/06/03 09:44:35;;;;;;;10.48;7.63;;;26.80;99.90;;;;;;5068179;28;20032;-78
2021/06/03 09:47:01;;;;;;;14.32;6.70;;;27.00;99.90;;;;;;5070353;28;20024;-76
2021/06/03 09:49:32;;;;;;;11.80;6.17;;;27.10;99.90;;;;;;5068777;28;20466;-78
2021/06/03 09:52:13;;;;;;;9.95;6.50;;;27.20;99.90;;;;;;5071031;28;20285;-77
2021/06/03 09:54:40;;;;;;;8.00;6.50;;;27.30;99.90;;;;;;5070828;28;20020;-77
2021/06/03 09:57:09;;;;;;;8.75;6.32;;;27.20;99.90;;;;;;5071719;28;20032;-78
2021/06/03 09:59:39;;;;;;;10.45;6.25;;;27.00;99.90;;;;;;5067763;28;20028;-77
2021/06/03 10:02:06;;;;;;;9.05;6.30;;;26.80;99.90;;;;;;5071224;28;20021;-78
2021/06/03 10:04:36;;;;;;;7.35;5.65;;;26.90;99.90;;;;;;5070930;28;20030;-77
2021/06/03 10:07:15;;;;;;;8.68;5.65;;;26.90;99.90;;;;;;5070250;28;20067;-78
2021/06/03 10:09:49;;;;;;;8.30;5.75;;;27.10;99.90;;;;;;5073466;28;20028;-77
2021/06/03 10:12:26;;;;;;;11.38;6.38;;;27.40;99.90;;;;;;5069171;28;20031;-78
2021/06/03 10:15:21;;;;;;;7.97;5.65;;;27.40;99.90;;;;;;5070639;28;20012;-78
2021/06/03 10:18:00;;;;;;;7.88;5.70;;;27.50;99.90;;;;;;5051931;28;20037;-79
2021/06/03 10:20:37;;;;;;;10.45;6.68;;;27.70;99.90;;;;;;5070950;28;20535;-77
2021/06/03 10:23:08;;;;;;;7.53;5.85;;;27.80;99.90;;;;;;5071353;28;20036;-78
2021/06/03 10:25:36;;;;;;;8.27;5.47;;;27.80;99.90;;;;;;5071406;28;20427;-77
2021/06/03 10:28:06;;;;;;;8.25;6.60;;;27.80;99.90;;;;;;5074961;28;20028;-78
2021/06/03 10:30:40;;;;;;;9.88;6.50;;;27.60;99.90;;;;;;5076498;28;20017;-78
2021/06/03 10:33:11;;;;;;;10.82;6.35;;;27.40;99.90;;;;;;5074571;28;20032;-77
2021/06/03 10:35:38;;;;;;;10.52;6.47;;;27.30;99.90;;;;;;5074131;28;20056;-78
2021/06/03 10:38:06;;;;;;;9.23;5.57;;;27.10;99.90;;;;;;5076066;28;20285;-78
2021/06/03 10:40:40;;;;;;;9.27;5.60;;;26.90;99.90;;;;;;5074417;28;20287;-78
2021/06/03 10:43:06;;;;;;;6.97;6.15;;;26.70;99.90;;;;;;5071997;28;20028;-77
2021/06/03 10:45:34;;;;;;;10.05;6.25;;;26.90;99.90;;;;;;5071523;28;20032;-77
2021/06/03 10:47:59;;;;;;;10.25;6.95;;;26.90;99.90;;;;;;5070871;28;20044;-77
2021/06/03 10:50:31;;;;;;;10.13;6.35;;;26.90;99.90;;;;;;5075827;28;20075;-77
2021/06/03 10:53:05;;;;;;;10.43;5.68;;;27.10;99.90;;;;;;5073956;28;20040;-77
2021/06/03 10:55:42;;;;;;;8.23;5.70;;;27.40;99.90;;;;;;5066127;28;20432;-77
2021/06/03 10:58:11;;;;;;;11.52;5.70;;;27.90;99.90;;;;;;5068876;28;20035;-77
2021/06/03 11:00:45;;;;;;;9.35;5.57;;;28.10;99.90;;;;;;5056061;28;20115;-77
2021/06/03 11:03:26;;;;;;;9.02;5.88;;;28.20;99.90;;;;;;5073960;28;20078;-77
2021/06/03 11:06:09;;;;;;;8.23;5.43;;;28.20;99.90;;;;;;5074028;28;20055;-77
2021/06/03 11:08:55;;;;;;;10.60;6.30;;;28.20;99.90;;;;;;5069921;28;20033;-77
2021/06/03 11:11:22;;;;;;;10.05;6.32;;;28.50;99.90;;;;;;5070142;28;20035;-77
2021/06/03 11:13:48;;;;;;;8.15;6.10;;;28.40;99.90;;;;;;5074742;28;20035;-77
2021/06/03 11:16:25;;;;;;;9.07;6.00;;;28.50;99.90;;;;;;5074304;28;20024;-79
2021/06/03 11:18:53;;;;;;;8.65;6.38;;;28.40;99.90;;;;;;5070448;28;20333;-77
2021/06/03 11:21:52;;;;;;;9.52;5.60;;;28.20;99.90;;;;;;5074513;28;20040;-76
2021/06/03 11:24:33;;;;;;;9.50;6.30;;;28.10;99.90;;;;;;5069642;28;20119;-76
2021/06/03 11:27:04;;;;;;;10.77;7.10;;;27.90;99.90;;;;;;5074353;28;20055;-77
2021/06/03 11:29:34;;;;;;;9.48;6.75;;;27.60;99.90;;;;;;5074013;28;20048;-77
2021/06/03 11:32:06;;;;;;;9.85;6.65;;;27.50;99.90;;;;;;5072543;28;20024;-76
2021/06/03 11:34:38;;;;;;;9.77;6.68;;;27.60;99.90;;;;;;5071953;28;20094;-77
2021/06/03 11:37:16;;;;;;;10.23;7.03;;;27.70;99.90;;;;;;5072698;28;20466;-78
2021/06/03 11:39:54;;;;;;;11.60;8.23;;;27.90;99.90;;;;;;5070955;28;20090;-76
2021/06/03 11:42:46;;;;;;;9.70;6.88;;;27.70;99.90;;;;;;5073519;28;20021;-77
2021/06/03 11:45:31;;;;;;;13.02;7.65;;;27.30;99.90;;;;;;5072196;28;20028;-76
2021/06/03 11:48:00;;;;;;;13.48;8.68;;;27.00;99.90;;;;;;5069347;28;20048;-78
2021/06/03 11:50:26;;;;;;;16.42;9.70;;;27.10;99.90;;;;;;5071136;28;20107;-79
2021/06/03 11:53:04;;;;;;;12.55;8.30;;;26.90;99.90;;;;;;5069406;28;20433;-78
2021/06/03 11:55:34;;;;;;;12.13;8.30;;;26.70;99.90;;;;;;5074335;28;20031;-76
2021/06/03 11:58:28;;;;;;;11.48;8.25;;;26.60;99.90;;;;;;5072306;28;20707;-76
2021/06/03 12:01:06;;;;;;;12.98;8.77;;;26.40;99.90;;;;;;5074030;28;20104;-77
2021/06/03 12:03:36;;;;;;;12.60;8.73;;;26.40;99.90;;;;;;5073460;28;20358;-78
2021/06/03 12:06:08;;;;;;;12.93;9.82;;;26.50;99.90;;;;;;5073295;28;20281;-77
2021/06/03 12:08:55;;;;;;;11.35;9.25;;;26.60;99.90;;;;;;5073490;28;20434;-77
2021/06/03 12:11:22;;;;;;;17.67;10.48;;;26.80;99.90;;;;;;5072972;28;20031;-77
2021/06/03 12:14:08;;;;;;;17.73;10.00;;;27.00;99.90;;;;;;5074071;28;20357;-79
2021/06/03 12:16:40;;;;;;;10.82;8.15;;;27.20;99.90;;;;;;5072405;28;20078;-76
2021/06/03 12:19:14;;;;;;;13.82;10.02;;;27.40;99.90;;;;;;5072192;28;20052;-77
2021/06/03 12:21:41;;;;;;;16.90;10.27;;;27.60;99.90;;;;;;5074028;28;20024;-76
2021/06/03 12:24:07;;;;;;;15.00;10.73;;;27.60;99.90;;;;;;5074924;28;20036;-76
2021/06/03 12:26:35;;;;;;;;;;;27.40;99.90;;;;;;5075497;28;20089;-76
2021/06/03 12:29:01;;;;;;;13.55;8.35;;;27.20;99.90;;;;;;5073956;28;19964;-77
2021/06/03 12:31:28;;;;;;;16.50;10.57;;;27.00;99.90;;;;;;5073085;28;20036;-76
2021/06/03 12:33:56;;;;;;;17.58;10.00;;;26.90;99.90;;;;;;5072781;28;20024;-79
2021/06/03 12:36:25;;;;;;;17.10;9.60;;;26.70;99.90;;;;;;5072163;28;20378;-79
2021/06/03 12:38:56;;;;;;;12.98;10.93;;;26.60;99.90;;;;;;5073976;28;20025;-78
2021/06/03 12:41:29;;;;;;;13.52;9.75;;;26.40;99.90;;;;;;5056074;28;20025;-78
2021/06/03 12:43:59;;;;;;;15.32;10.02;;;26.20;99.90;;;;;;5068482;28;20048;-76
2021/06/03 12:46:54;;;;;;;17.10;11.40;;;26.30;99.90;;;;;;5068893;28;20028;-78
2021/06/03 12:49:25;;;;;;;19.43;10.77;;;26.30;99.90;;;;;;5068383;28;20034;-79
2021/06/03 12:51:56;;;;;;;17.42;10.68;;;26.20;99.90;;;;;;5071599;28;20097;-78
2021/06/03 12:54:37;;;;;;;16.42;11.10;;;25.90;99.90;;;;;;5072781;28;20016;-77